sensor_id;sensor_type;location;lat;lon;timestamp;P1;durP1;ratioP1;P2;durP2;ratioP2
21810;SDS011;11067;48.788;9.208;2022-10-16T00:02:19;3.00;;;2.00;;
21810;SDS011;11067;48.788;9.208;2022-10-16T00:04:45;3.50;;;2.03;;
21810;SDS011;11067;48.788;9.208;2022-10-16T00:07:11;4.33;;;2.23;;
21810;SDS011;11067;48.788;9.208;2022-10-16T00:09:36;3.87;;;2.20;;
21810;SDS011;11067;48.788;9.208;2022-10-16T00:12:02;2.42;;;1.92;;
21810;SDS011;11067;48.788;9.208;2022-10-16T00:14:29;4.50;;;2.33;;
21810;SDS011;11067;48.788;9.208;2022-10-16T00:16:55;5.13;;;2.37;;
21810;SDS011;11067;48.788;9.208;2022-10-16T00:19:20;4.33;;;2.40;;
21810;SDS011;11067;48.788;9.208;2022-10-16T00:21:46;3.85;;;2.40;;
21810;SDS011;11067;48.788;9.208;2022-10-16T00:24:11;3.77;;;2.20;;
21810;SDS011;11067;48.788;9.208;2022-10-16T00:26:38;4.35;;;2.50;;
21810;SDS011;11067;48.788;9.208;2022-10-16T00:29:05;5.38;;;2.25;;
21810;SDS011;11067;48.788;9.208;2022-10-16T00:31:30;3.95;;;2.25;;
21810;SDS011;11067;48.788;9.208;2022-10-16T00:33:56;3.33;;;2.03;;
21810;SDS011;11067;48.788;9.208;2022-10-16T00:36:22;4.10;;;2.07;;
21810;SDS011;11067;48.788;9.208;2022-10-16T00:38:50;4.00;;;1.47;;
21810;SDS011;11067;48.788;9.208;2022-10-16T00:41:18;2.95;;;1.90;;
21810;SDS011;11067;48.788;9.208;2022-10-16T00:43:44;2.20;;;1.50;;
21810;SDS011;11067;48.788;9.208;2022-10-16T00:46:17;1.85;;;1.52;;
21810;SDS011;11067;48.788;9.208;2022-10-16T00:48:56;4.55;;;1.83;;
21810;SDS011;11067;48.788;9.208;2022-10-16T00:51:28;2.23;;;1.70;;
21810;SDS011;11067;48.788;9.208;2022-10-16T00:54:04;2.92;;;1.60;;
21810;SDS011;11067;48.788;9.208;2022-10-16T00:56:34;4.97;;;2.10;;
21810;SDS011;11067;48.788;9.208;2022-10-16T00:59:01;2.33;;;1.90;;
21810;SDS011;11067;48.788;9.208;2022-10-16T01:01:32;2.08;;;1.50;;
21810;SDS011;11067;48.788;9.208;2022-10-16T01:03:58;3.67;;;1.70;;
21810;SDS011;11067;48.788;9.208;2022-10-16T01:06:24;2.87;;;1.60;;
21810;SDS011;11067;48.788;9.208;2022-10-16T01:09:10;2.65;;;1.80;;
21810;SDS011;11067;48.788;9.208;2022-10-16T01:12:06;2.15;;;1.70;;
21810;SDS011;11067;48.788;9.208;2022-10-16T01:14:40;3.43;;;1.50;;
21810;SDS011;11067;48.788;9.208;2022-10-16T01:20:12;3.13;;;1.30;;
21810;SDS011;11067;48.788;9.208;2022-10-16T01:28:13;3.50;;;1.75;;
21810;SDS011;11067;48.788;9.208;2022-10-16T01:30:42;5.72;;;1.73;;
21810;SDS011;11067;48.788;9.208;2022-10-16T01:33:13;1.90;;;1.57;;
21810;SDS011;11067;48.788;9.208;2022-10-16T01:35:46;1.95;;;1.50;;
21810;SDS011;11067;48.788;9.208;2022-10-16T01:38:19;3.38;;;1.67;;
21810;SDS011;11067;48.788;9.208;2022-10-16T01:40:51;2.77;;;1.50;;
21810;SDS011;11067;48.788;9.208;2022-10-16T01:43:24;3.00;;;1.50;;
21810;SDS011;11067;48.788;9.208;2022-10-16T01:45:56;2.00;;;1.30;;
21810;SDS011;11067;48.788;9.208;2022-10-16T01:48:23;2.92;;;1.40;;
21810;SDS011;11067;48.788;9.208;2022-10-16T01:50:52;2.05;;;1.60;;
21810;SDS011;11067;48.788;9.208;2022-10-16T01:53:22;2.30;;;1.60;;
21810;SDS011;11067;48.788;9.208;2022-10-16T01:55:49;3.17;;;1.77;;
21810;SDS011;11067;48.788;9.208;2022-10-16T01:58:17;2.00;;;1.63;;
21810;SDS011;11067;48.788;9.208;2022-10-16T02:00:43;5.20;;;1.80;;
21810;SDS011;11067;48.788;9.208;2022-10-16T02:03:12;2.85;;;1.55;;
21810;SDS011;11067;48.788;9.208;2022-10-16T02:05:46;4.97;;;1.80;;
21810;SDS011;11067;48.788;9.208;2022-10-16T02:08:17;3.38;;;1.63;;
21810;SDS011;11067;48.788;9.208;2022-10-16T02:10:43;4.77;;;2.00;;
21810;SDS011;11067;48.788;9.208;2022-10-16T02:15:42;4.05;;;1.80;;
21810;SDS011;11067;48.788;9.208;2022-10-16T02:18:08;2.58;;;2.00;;
21810;SDS011;11067;48.788;9.208;2022-10-16T02:21:12;4.50;;;1.90;;
21810;SDS011;11067;48.788;9.208;2022-10-16T02:23:43;8.25;;;1.80;;
21810;SDS011;11067;48.788;9.208;2022-10-16T02:26:17;3.97;;;1.80;;
21810;SDS011;11067;48.788;9.208;2022-10-16T02:28:52;3.53;;;1.80;;
21810;SDS011;11067;48.788;9.208;2022-10-16T02:31:25;2.85;;;1.85;;
21810;SDS011;11067;48.788;9.208;2022-10-16T02:33:54;2.72;;;1.70;;
21810;SDS011;11067;48.788;9.208;2022-10-16T02:36:22;4.35;;;1.70;;
21810;SDS011;11067;48.788;9.208;2022-10-16T02:38:48;2.65;;;1.70;;
21810;SDS011;11067;48.788;9.208;2022-10-16T02:41:14;3.47;;;1.67;;
21810;SDS011;11067;48.788;9.208;2022-10-16T02:43:40;3.65;;;1.80;;
21810;SDS011;11067;48.788;9.208;2022-10-16T02:46:05;4.27;;;1.80;;
21810;SDS011;11067;48.788;9.208;2022-10-16T02:48:31;3.92;;;1.65;;
21810;SDS011;11067;48.788;9.208;2022-10-16T02:50:57;5.53;;;1.75;;
21810;SDS011;11067;48.788;9.208;2022-10-16T02:53:22;4.00;;;1.80;;
21810;SDS011;11067;48.788;9.208;2022-10-16T02:55:48;3.57;;;1.70;;
21810;SDS011;11067;48.788;9.208;2022-10-16T02:58:13;2.90;;;1.73;;
21810;SDS011;11067;48.788;9.208;2022-10-16T03:00:39;4.60;;;1.70;;
21810;SDS011;11067;48.788;9.208;2022-10-16T03:03:04;2.70;;;1.83;;
21810;SDS011;11067;48.788;9.208;2022-10-16T03:05:30;3.87;;;1.83;;
21810;SDS011;11067;48.788;9.208;2022-10-16T03:07:55;4.10;;;1.87;;
21810;SDS011;11067;48.788;9.208;2022-10-16T03:10:21;2.55;;;1.63;;
21810;SDS011;11067;48.788;9.208;2022-10-16T03:12:46;2.40;;;1.67;;
21810;SDS011;11067;48.788;9.208;2022-10-16T03:15:12;3.05;;;1.88;;
21810;SDS011;11067;48.788;9.208;2022-10-16T03:17:37;3.97;;;1.70;;
21810;SDS011;11067;48.788;9.208;2022-10-16T03:20:03;4.55;;;1.80;;
21810;SDS011;11067;48.788;9.208;2022-10-16T03:22:29;5.13;;;1.70;;
21810;SDS011;11067;48.788;9.208;2022-10-16T03:24:54;3.03;;;1.50;;
21810;SDS011;11067;48.788;9.208;2022-10-16T03:27:20;3.37;;;1.70;;
21810;SDS011;11067;48.788;9.208;2022-10-16T03:29:46;5.00;;;2.00;;
21810;SDS011;11067;48.788;9.208;2022-10-16T03:32:11;2.87;;;1.50;;
21810;SDS011;11067;48.788;9.208;2022-10-16T03:34:37;2.40;;;1.80;;
21810;SDS011;11067;48.788;9.208;2022-10-16T03:37:02;2.95;;;1.67;;
21810;SDS011;11067;48.788;9.208;2022-10-16T03:39:28;3.53;;;1.80;;
21810;SDS011;11067;48.788;9.208;2022-10-16T03:41:53;2.37;;;1.97;;
21810;SDS011;11067;48.788;9.208;2022-10-16T03:44:19;4.70;;;1.60;;
21810;SDS011;11067;48.788;9.208;2022-10-16T03:46:44;2.27;;;1.80;;
21810;SDS011;11067;48.788;9.208;2022-10-16T03:49:10;4.60;;;2.30;;
21810;SDS011;11067;48.788;9.208;2022-10-16T03:51:35;2.87;;;1.63;;
21810;SDS011;11067;48.788;9.208;2022-10-16T03:54:01;3.60;;;2.10;;
21810;SDS011;11067;48.788;9.208;2022-10-16T03:56:27;2.80;;;1.90;;
21810;SDS011;11067;48.788;9.208;2022-10-16T03:58:52;3.47;;;2.13;;
21810;SDS011;11067;48.788;9.208;2022-10-16T04:01:18;2.47;;;2.20;;
21810;SDS011;11067;48.788;9.208;2022-10-16T04:03:43;4.45;;;2.30;;
21810;SDS011;11067;48.788;9.208;2022-10-16T04:06:09;4.77;;;2.23;;
21810;SDS011;11067;48.788;9.208;2022-10-16T04:08:34;2.90;;;1.92;;
21810;SDS011;11067;48.788;9.208;2022-10-16T04:11:01;3.08;;;2.13;;
21810;SDS011;11067;48.788;9.208;2022-10-16T04:13:28;3.00;;;1.90;;
21810;SDS011;11067;48.788;9.208;2022-10-16T04:15:53;5.43;;;2.17;;
21810;SDS011;11067;48.788;9.208;2022-10-16T04:18:19;2.10;;;1.63;;
21810;SDS011;11067;48.788;9.208;2022-10-16T04:20:44;5.87;;;2.43;;
21810;SDS011;11067;48.788;9.208;2022-10-16T04:23:10;5.25;;;2.25;;
21810;SDS011;11067;48.788;9.208;2022-10-16T04:25:35;7.67;;;2.00;;
21810;SDS011;11067;48.788;9.208;2022-10-16T04:28:01;6.77;;;2.57;;
21810;SDS011;11067;48.788;9.208;2022-10-16T04:30:27;6.00;;;2.60;;
21810;SDS011;11067;48.788;9.208;2022-10-16T04:32:52;5.28;;;2.60;;
21810;SDS011;11067;48.788;9.208;2022-10-16T04:35:18;4.95;;;2.40;;
21810;SDS011;11067;48.788;9.208;2022-10-16T04:37:45;3.33;;;2.30;;
21810;SDS011;11067;48.788;9.208;2022-10-16T04:40:11;5.55;;;2.35;;
21810;SDS011;11067;48.788;9.208;2022-10-16T04:42:37;8.10;;;2.67;;
21810;SDS011;11067;48.788;9.208;2022-10-16T04:45:03;4.35;;;2.10;;
21810;SDS011;11067;48.788;9.208;2022-10-16T04:47:30;4.18;;;2.20;;
21810;SDS011;11067;48.788;9.208;2022-10-16T04:49:55;5.60;;;2.45;;
21810;SDS011;11067;48.788;9.208;2022-10-16T04:52:21;5.90;;;2.35;;
21810;SDS011;11067;48.788;9.208;2022-10-16T04:54:49;4.90;;;2.10;;
21810;SDS011;11067;48.788;9.208;2022-10-16T04:57:15;5.25;;;2.38;;
21810;SDS011;11067;48.788;9.208;2022-10-16T04:59:41;3.85;;;1.92;;
21810;SDS011;11067;48.788;9.208;2022-10-16T05:02:07;4.00;;;2.03;;
21810;SDS011;11067;48.788;9.208;2022-10-16T05:04:32;4.20;;;2.20;;
21810;SDS011;11067;48.788;9.208;2022-10-16T05:06:58;2.80;;;1.90;;
21810;SDS011;11067;48.788;9.208;2022-10-16T05:09:23;4.40;;;2.30;;
21810;SDS011;11067;48.788;9.208;2022-10-16T05:11:49;5.17;;;2.33;;
21810;SDS011;11067;48.788;9.208;2022-10-16T05:14:14;4.50;;;1.83;;
21810;SDS011;11067;48.788;9.208;2022-10-16T05:16:40;5.77;;;2.37;;
21810;SDS011;11067;48.788;9.208;2022-10-16T05:19:05;6.00;;;2.60;;
21810;SDS011;11067;48.788;9.208;2022-10-16T05:21:31;6.80;;;2.63;;
21810;SDS011;11067;48.788;9.208;2022-10-16T05:23:56;4.53;;;2.50;;
21810;SDS011;11067;48.788;9.208;2022-10-16T05:26:22;5.03;;;2.30;;
21810;SDS011;11067;48.788;9.208;2022-10-16T05:28:48;5.30;;;2.65;;
21810;SDS011;11067;48.788;9.208;2022-10-16T05:31:14;5.55;;;2.65;;
21810;SDS011;11067;48.788;9.208;2022-10-16T05:33:40;6.97;;;3.63;;
21810;SDS011;11067;48.788;9.208;2022-10-16T05:36:06;10.75;;;3.47;;
21810;SDS011;11067;48.788;9.208;2022-10-16T05:38:34;4.28;;;2.40;;
21810;SDS011;11067;48.788;9.208;2022-10-16T05:41:01;4.70;;;2.40;;
21810;SDS011;11067;48.788;9.208;2022-10-16T05:43:27;5.27;;;2.50;;
21810;SDS011;11067;48.788;9.208;2022-10-16T05:45:57;4.32;;;2.20;;
21810;SDS011;11067;48.788;9.208;2022-10-16T05:48:24;4.80;;;2.53;;
21810;SDS011;11067;48.788;9.208;2022-10-16T05:50:57;5.77;;;2.00;;
21810;SDS011;11067;48.788;9.208;2022-10-16T05:53:30;4.68;;;2.03;;
21810;SDS011;11067;48.788;9.208;2022-10-16T05:55:57;4.10;;;2.30;;
21810;SDS011;11067;48.788;9.208;2022-10-16T05:58:24;3.90;;;2.25;;
21810;SDS011;11067;48.788;9.208;2022-10-16T06:00:53;6.13;;;2.75;;
21810;SDS011;11067;48.788;9.208;2022-10-16T06:03:39;5.73;;;2.40;;
21810;SDS011;11067;48.788;9.208;2022-10-16T06:06:08;7.80;;;2.30;;
21810;SDS011;11067;48.788;9.208;2022-10-16T06:08:38;5.90;;;2.60;;
21810;SDS011;11067;48.788;9.208;2022-10-16T06:11:06;4.90;;;2.20;;
21810;SDS011;11067;48.788;9.208;2022-10-16T06:13:33;7.82;;;2.22;;
21810;SDS011;11067;48.788;9.208;2022-10-16T06:15:59;3.37;;;2.10;;
21810;SDS011;11067;48.788;9.208;2022-10-16T06:18:27;2.55;;;1.95;;
21810;SDS011;11067;48.788;9.208;2022-10-16T06:20:53;6.07;;;1.90;;
21810;SDS011;11067;48.788;9.208;2022-10-16T06:23:19;7.10;;;2.28;;
21810;SDS011;11067;48.788;9.208;2022-10-16T06:25:45;4.90;;;2.27;;
21810;SDS011;11067;48.788;9.208;2022-10-16T06:28:10;5.63;;;2.15;;
21810;SDS011;11067;48.788;9.208;2022-10-16T06:30:36;3.72;;;2.10;;
21810;SDS011;11067;48.788;9.208;2022-10-16T06:33:01;6.70;;;1.90;;
21810;SDS011;11067;48.788;9.208;2022-10-16T06:35:27;8.35;;;2.60;;
21810;SDS011;11067;48.788;9.208;2022-10-16T06:37:54;2.97;;;2.15;;
21810;SDS011;11067;48.788;9.208;2022-10-16T06:40:19;5.43;;;2.40;;
21810;SDS011;11067;48.788;9.208;2022-10-16T06:42:45;6.23;;;2.40;;
21810;SDS011;11067;48.788;9.208;2022-10-16T06:45:11;5.00;;;2.60;;
21810;SDS011;11067;48.788;9.208;2022-10-16T06:47:37;5.57;;;2.72;;
21810;SDS011;11067;48.788;9.208;2022-10-16T06:50:03;7.20;;;2.23;;
21810;SDS011;11067;48.788;9.208;2022-10-16T06:52:31;7.03;;;2.60;;
21810;SDS011;11067;48.788;9.208;2022-10-16T06:54:56;5.40;;;2.47;;
21810;SDS011;11067;48.788;9.208;2022-10-16T06:57:22;5.88;;;2.47;;
21810;SDS011;11067;48.788;9.208;2022-10-16T06:59:47;8.50;;;2.67;;
21810;SDS011;11067;48.788;9.208;2022-10-16T07:02:13;5.73;;;2.40;;
21810;SDS011;11067;48.788;9.208;2022-10-16T07:04:38;9.23;;;2.70;;
21810;SDS011;11067;48.788;9.208;2022-10-16T07:07:04;5.77;;;2.27;;
21810;SDS011;11067;48.788;9.208;2022-10-16T07:09:30;3.73;;;2.10;;
21810;SDS011;11067;48.788;9.208;2022-10-16T07:11:55;3.60;;;2.15;;
21810;SDS011;11067;48.788;9.208;2022-10-16T07:14:21;4.83;;;2.30;;
21810;SDS011;11067;48.788;9.208;2022-10-16T07:16:47;3.30;;;2.60;;
21810;SDS011;11067;48.788;9.208;2022-10-16T07:19:13;5.72;;;2.13;;
21810;SDS011;11067;48.788;9.208;2022-10-16T07:21:41;9.63;;;2.42;;
21810;SDS011;11067;48.788;9.208;2022-10-16T07:24:10;5.93;;;2.20;;
21810;SDS011;11067;48.788;9.208;2022-10-16T07:26:38;6.57;;;2.00;;
21810;SDS011;11067;48.788;9.208;2022-10-16T07:29:05;7.75;;;2.30;;
21810;SDS011;11067;48.788;9.208;2022-10-16T07:31:32;4.03;;;2.20;;
21810;SDS011;11067;48.788;9.208;2022-10-16T07:33:59;4.55;;;2.30;;
21810;SDS011;11067;48.788;9.208;2022-10-16T07:36:25;3.50;;;2.00;;
21810;SDS011;11067;48.788;9.208;2022-10-16T07:38:51;4.30;;;1.92;;
21810;SDS011;11067;48.788;9.208;2022-10-16T07:41:17;4.93;;;1.97;;
21810;SDS011;11067;48.788;9.208;2022-10-16T07:43:51;4.20;;;2.10;;
21810;SDS011;11067;48.788;9.208;2022-10-16T07:46:17;4.83;;;2.10;;
21810;SDS011;11067;48.788;9.208;2022-10-16T07:48:44;5.10;;;2.20;;
21810;SDS011;11067;48.788;9.208;2022-10-16T07:51:12;3.20;;;2.03;;
21810;SDS011;11067;48.788;9.208;2022-10-16T07:53:42;3.75;;;2.03;;
21810;SDS011;11067;48.788;9.208;2022-10-16T07:56:07;3.00;;;2.00;;
21810;SDS011;11067;48.788;9.208;2022-10-16T07:58:33;3.17;;;2.00;;
21810;SDS011;11067;48.788;9.208;2022-10-16T08:01:05;3.13;;;2.07;;
21810;SDS011;11067;48.788;9.208;2022-10-16T08:03:35;2.38;;;1.73;;
21810;SDS011;11067;48.788;9.208;2022-10-16T08:06:01;4.07;;;2.30;;
21810;SDS011;11067;48.788;9.208;2022-10-16T08:08:27;6.57;;;1.85;;
21810;SDS011;11067;48.788;9.208;2022-10-16T08:10:53;5.63;;;1.95;;
21810;SDS011;11067;48.788;9.208;2022-10-16T08:13:19;5.90;;;1.95;;
21810;SDS011;11067;48.788;9.208;2022-10-16T08:15:45;3.08;;;2.00;;
21810;SDS011;11067;48.788;9.208;2022-10-16T08:18:12;2.95;;;1.85;;
21810;SDS011;11067;48.788;9.208;2022-10-16T08:20:38;2.70;;;1.73;;
21810;SDS011;11067;48.788;9.208;2022-10-16T08:23:04;4.93;;;2.03;;
21810;SDS011;11067;48.788;9.208;2022-10-16T08:25:30;3.30;;;1.73;;
21810;SDS011;11067;48.788;9.208;2022-10-16T08:27:56;3.97;;;1.80;;
21810;SDS011;11067;48.788;9.208;2022-10-16T08:30:22;6.70;;;1.97;;
21810;SDS011;11067;48.788;9.208;2022-10-16T08:32:48;3.42;;;2.00;;
21810;SDS011;11067;48.788;9.208;2022-10-16T08:35:14;4.28;;;1.88;;
21810;SDS011;11067;48.788;9.208;2022-10-16T08:37:41;3.37;;;1.97;;
21810;SDS011;11067;48.788;9.208;2022-10-16T08:40:07;2.13;;;1.60;;
21810;SDS011;11067;48.788;9.208;2022-10-16T08:48:57;4.00;;;2.10;;
21810;SDS011;11067;48.788;9.208;2022-10-16T08:51:25;2.80;;;1.85;;
21810;SDS011;11067;48.788;9.208;2022-10-16T08:53:57;3.05;;;1.92;;
21810;SDS011;11067;48.788;9.208;2022-10-16T08:56:26;2.80;;;1.90;;
21810;SDS011;11067;48.788;9.208;2022-10-16T08:58:53;6.97;;;1.90;;
21810;SDS011;11067;48.788;9.208;2022-10-16T09:01:20;5.18;;;2.03;;
21810;SDS011;11067;48.788;9.208;2022-10-16T09:06:59;4.55;;;1.95;;
21810;SDS011;11067;48.788;9.208;2022-10-16T09:12:23;4.18;;;1.80;;
21810;SDS011;11067;48.788;9.208;2022-10-16T09:22:44;3.05;;;1.77;;
21810;SDS011;11067;48.788;9.208;2022-10-16T09:25:17;6.10;;;1.90;;
21810;SDS011;11067;48.788;9.208;2022-10-16T09:27:48;3.00;;;1.88;;
21810;SDS011;11067;48.788;9.208;2022-10-16T09:30:17;2.95;;;1.80;;
21810;SDS011;11067;48.788;9.208;2022-10-16T09:32:44;2.75;;;1.70;;
21810;SDS011;11067;48.788;9.208;2022-10-16T09:35:14;4.50;;;2.10;;
21810;SDS011;11067;48.788;9.208;2022-10-16T09:37:44;3.53;;;1.80;;
21810;SDS011;11067;48.788;9.208;2022-10-16T09:40:31;1.98;;;1.77;;
21810;SDS011;11067;48.788;9.208;2022-10-16T09:43:03;3.13;;;1.80;;
21810;SDS011;11067;48.788;9.208;2022-10-16T09:48:21;2.73;;;1.70;;
21810;SDS011;11067;48.788;9.208;2022-10-16T09:51:00;3.53;;;1.60;;
21810;SDS011;11067;48.788;9.208;2022-10-16T09:53:37;3.53;;;1.70;;
21810;SDS011;11067;48.788;9.208;2022-10-16T09:56:11;4.32;;;1.73;;
21810;SDS011;11067;48.788;9.208;2022-10-16T09:58:49;2.90;;;1.60;;
21810;SDS011;11067;48.788;9.208;2022-10-16T10:01:16;2.47;;;1.50;;
21810;SDS011;11067;48.788;9.208;2022-10-16T10:03:42;2.47;;;1.70;;
21810;SDS011;11067;48.788;9.208;2022-10-16T10:06:25;2.42;;;1.80;;
21810;SDS011;11067;48.788;9.208;2022-10-16T10:08:52;3.10;;;1.60;;
21810;SDS011;11067;48.788;9.208;2022-10-16T10:11:18;4.45;;;1.60;;
21810;SDS011;11067;48.788;9.208;2022-10-16T10:14:05;3.78;;;1.70;;
21810;SDS011;11067;48.788;9.208;2022-10-16T10:16:33;2.95;;;1.88;;
21810;SDS011;11067;48.788;9.208;2022-10-16T10:18:59;2.22;;;1.52;;
21810;SDS011;11067;48.788;9.208;2022-10-16T10:21:25;2.85;;;1.60;;
21810;SDS011;11067;48.788;9.208;2022-10-16T10:23:57;2.70;;;1.58;;
21810;SDS011;11067;48.788;9.208;2022-10-16T10:26:24;2.67;;;1.80;;
21810;SDS011;11067;48.788;9.208;2022-10-16T10:31:26;2.07;;;1.60;;
21810;SDS011;11067;48.788;9.208;2022-10-16T10:36:42;3.65;;;1.23;;
21810;SDS011;11067;48.788;9.208;2022-10-16T10:39:15;2.38;;;1.55;;
21810;SDS011;11067;48.788;9.208;2022-10-16T10:55:24;4.70;;;1.70;;
21810;SDS011;11067;48.788;9.208;2022-10-16T10:58:27;2.70;;;1.40;;
21810;SDS011;11067;48.788;9.208;2022-10-16T11:01:01;4.70;;;1.73;;
21810;SDS011;11067;48.788;9.208;2022-10-16T11:06:33;4.65;;;1.80;;
21810;SDS011;11067;48.788;9.208;2022-10-16T11:09:08;2.93;;;1.73;;
21810;SDS011;11067;48.788;9.208;2022-10-16T11:11:40;2.58;;;1.40;;
21810;SDS011;11067;48.788;9.208;2022-10-16T11:14:17;2.17;;;1.63;;
21810;SDS011;11067;48.788;9.208;2022-10-16T11:22:04;3.53;;;1.38;;
21810;SDS011;11067;48.788;9.208;2022-10-16T11:27:42;4.65;;;1.50;;
21810;SDS011;11067;48.788;9.208;2022-10-16T11:30:24;2.30;;;1.55;;
21810;SDS011;11067;48.788;9.208;2022-10-16T11:32:56;4.00;;;1.77;;
21810;SDS011;11067;48.788;9.208;2022-10-16T11:36:00;2.15;;;1.60;;
21810;SDS011;11067;48.788;9.208;2022-10-16T11:41:29;4.73;;;1.40;;
21810;SDS011;11067;48.788;9.208;2022-10-16T11:49:42;3.35;;;1.20;;
21810;SDS011;11067;48.788;9.208;2022-10-16T11:52:17;2.95;;;1.30;;
21810;SDS011;11067;48.788;9.208;2022-10-16T11:54:54;2.88;;;1.40;;
21810;SDS011;11067;48.788;9.208;2022-10-16T11:57:27;2.88;;;1.40;;
21810;SDS011;11067;48.788;9.208;2022-10-16T12:00:00;4.03;;;1.47;;
21810;SDS011;11067;48.788;9.208;2022-10-16T12:02:33;2.50;;;1.50;;
21810;SDS011;11067;48.788;9.208;2022-10-16T12:05:23;3.85;;;1.50;;
21810;SDS011;11067;48.788;9.208;2022-10-16T12:08:02;2.47;;;1.43;;
21810;SDS011;11067;48.788;9.208;2022-10-16T12:10:37;2.07;;;1.27;;
21810;SDS011;11067;48.788;9.208;2022-10-16T12:13:25;3.63;;;1.30;;
21810;SDS011;11067;48.788;9.208;2022-10-16T12:16:07;5.20;;;1.45;;
21810;SDS011;11067;48.788;9.208;2022-10-16T12:18:46;2.53;;;1.27;;
21810;SDS011;11067;48.788;9.208;2022-10-16T12:21:14;2.33;;;1.53;;
21810;SDS011;11067;48.788;9.208;2022-10-16T12:23:56;3.33;;;1.40;;
21810;SDS011;11067;48.788;9.208;2022-10-16T12:26:29;5.10;;;1.35;;
21810;SDS011;11067;48.788;9.208;2022-10-16T12:29:12;2.80;;;1.33;;
21810;SDS011;11067;48.788;9.208;2022-10-16T12:31:39;2.60;;;1.30;;
21810;SDS011;11067;48.788;9.208;2022-10-16T12:34:22;2.77;;;1.50;;
21810;SDS011;11067;48.788;9.208;2022-10-16T12:36:53;1.65;;;1.15;;
21810;SDS011;11067;48.788;9.208;2022-10-16T12:39:22;1.33;;;1.23;;
21810;SDS011;11067;48.788;9.208;2022-10-16T12:42:17;3.78;;;1.67;;
21810;SDS011;11067;48.788;9.208;2022-10-16T12:44:44;2.58;;;1.15;;
21810;SDS011;11067;48.788;9.208;2022-10-16T12:47:18;3.97;;;1.40;;
21810;SDS011;11067;48.788;9.208;2022-10-16T12:49:52;1.73;;;1.15;;
21810;SDS011;11067;48.788;9.208;2022-10-16T12:52:26;1.73;;;1.20;;
21810;SDS011;11067;48.788;9.208;2022-10-16T12:55:03;1.50;;;1.40;;
21810;SDS011;11067;48.788;9.208;2022-10-16T13:00:23;1.65;;;1.25;;
21810;SDS011;11067;48.788;9.208;2022-10-16T13:03:24;3.17;;;1.52;;
21810;SDS011;11067;48.788;9.208;2022-10-16T13:11:52;3.90;;;1.50;;
21810;SDS011;11067;48.788;9.208;2022-10-16T13:17:41;3.15;;;1.10;;
21810;SDS011;11067;48.788;9.208;2022-10-16T13:20:16;1.70;;;1.30;;
21810;SDS011;11067;48.788;9.208;2022-10-16T13:27:54;3.85;;;1.70;;
21810;SDS011;11067;48.788;9.208;2022-10-16T13:30:28;3.78;;;1.50;;
21810;SDS011;11067;48.788;9.208;2022-10-16T13:32:58;1.83;;;1.50;;
21810;SDS011;11067;48.788;9.208;2022-10-16T13:35:29;2.83;;;1.50;;
21810;SDS011;11067;48.788;9.208;2022-10-16T13:38:11;4.63;;;1.52;;
21810;SDS011;11067;48.788;9.208;2022-10-16T13:43:23;1.55;;;1.35;;
21810;SDS011;11067;48.788;9.208;2022-10-16T13:46:03;2.97;;;1.40;;
21810;SDS011;11067;48.788;9.208;2022-10-16T13:48:30;5.17;;;1.77;;
21810;SDS011;11067;48.788;9.208;2022-10-16T13:53:25;2.60;;;1.80;;
21810;SDS011;11067;48.788;9.208;2022-10-16T13:55:51;3.83;;;1.77;;
21810;SDS011;11067;48.788;9.208;2022-10-16T13:58:17;2.80;;;1.60;;
21810;SDS011;11067;48.788;9.208;2022-10-16T14:00:55;3.50;;;1.70;;
21810;SDS011;11067;48.788;9.208;2022-10-16T14:03:23;3.20;;;1.58;;
21810;SDS011;11067;48.788;9.208;2022-10-16T14:05:50;2.63;;;1.70;;
21810;SDS011;11067;48.788;9.208;2022-10-16T14:08:24;3.38;;;1.45;;
21810;SDS011;11067;48.788;9.208;2022-10-16T14:10:55;2.65;;;1.45;;
21810;SDS011;11067;48.788;9.208;2022-10-16T14:13:29;3.47;;;1.50;;
21810;SDS011;11067;48.788;9.208;2022-10-16T14:15:57;4.93;;;1.50;;
21810;SDS011;11067;48.788;9.208;2022-10-16T14:18:27;3.40;;;1.40;;
21810;SDS011;11067;48.788;9.208;2022-10-16T14:20:53;2.70;;;1.60;;
21810;SDS011;11067;48.788;9.208;2022-10-16T14:23:23;3.42;;;1.30;;
21810;SDS011;11067;48.788;9.208;2022-10-16T14:26:14;4.00;;;1.73;;
21810;SDS011;11067;48.788;9.208;2022-10-16T14:28:42;5.13;;;1.80;;
21810;SDS011;11067;48.788;9.208;2022-10-16T14:33:55;2.80;;;1.63;;
21810;SDS011;11067;48.788;9.208;2022-10-16T14:36:21;3.25;;;1.65;;
21810;SDS011;11067;48.788;9.208;2022-10-16T14:39:04;3.80;;;1.50;;
21810;SDS011;11067;48.788;9.208;2022-10-16T14:41:32;4.45;;;1.55;;
21810;SDS011;11067;48.788;9.208;2022-10-16T14:44:05;2.50;;;1.95;;
21810;SDS011;11067;48.788;9.208;2022-10-16T14:46:33;1.98;;;1.50;;
21810;SDS011;11067;48.788;9.208;2022-10-16T14:51:34;2.40;;;1.55;;
21810;SDS011;11067;48.788;9.208;2022-10-16T14:54:01;3.63;;;1.75;;
21810;SDS011;11067;48.788;9.208;2022-10-16T14:56:30;2.57;;;1.60;;
21810;SDS011;11067;48.788;9.208;2022-10-16T14:59:00;3.22;;;1.83;;
21810;SDS011;11067;48.788;9.208;2022-10-16T15:01:27;4.68;;;1.83;;
21810;SDS011;11067;48.788;9.208;2022-10-16T15:03:52;1.93;;;1.53;;
21810;SDS011;11067;48.788;9.208;2022-10-16T15:06:19;3.05;;;1.83;;
21810;SDS011;11067;48.788;9.208;2022-10-16T15:08:46;2.95;;;1.90;;
21810;SDS011;11067;48.788;9.208;2022-10-16T15:11:12;3.00;;;1.80;;
21810;SDS011;11067;48.788;9.208;2022-10-16T15:13:40;5.43;;;1.98;;
21810;SDS011;11067;48.788;9.208;2022-10-16T15:16:10;3.47;;;1.80;;
21810;SDS011;11067;48.788;9.208;2022-10-16T15:18:38;2.92;;;1.80;;
21810;SDS011;11067;48.788;9.208;2022-10-16T15:21:03;2.53;;;1.93;;
21810;SDS011;11067;48.788;9.208;2022-10-16T15:23:29;3.30;;;1.90;;
21810;SDS011;11067;48.788;9.208;2022-10-16T15:25:55;3.40;;;2.20;;
21810;SDS011;11067;48.788;9.208;2022-10-16T15:28:22;4.20;;;2.00;;
21810;SDS011;11067;48.788;9.208;2022-10-16T15:30:49;4.45;;;1.95;;
21810;SDS011;11067;48.788;9.208;2022-10-16T15:33:18;3.50;;;2.13;;
21810;SDS011;11067;48.788;9.208;2022-10-16T15:35:49;5.43;;;2.40;;
21810;SDS011;11067;48.788;9.208;2022-10-16T15:38:16;5.38;;;2.60;;
21810;SDS011;11067;48.788;9.208;2022-10-16T15:40:43;3.85;;;2.40;;
21810;SDS011;11067;48.788;9.208;2022-10-16T15:43:09;3.60;;;2.20;;
21810;SDS011;11067;48.788;9.208;2022-10-16T15:45:35;6.22;;;2.13;;
21810;SDS011;11067;48.788;9.208;2022-10-16T15:48:01;6.33;;;2.50;;
21810;SDS011;11067;48.788;9.208;2022-10-16T15:50:26;6.22;;;2.50;;
21810;SDS011;11067;48.788;9.208;2022-10-16T15:52:52;6.20;;;2.67;;
21810;SDS011;11067;48.788;9.208;2022-10-16T15:55:17;4.47;;;2.40;;
21810;SDS011;11067;48.788;9.208;2022-10-16T15:57:43;6.00;;;2.33;;
21810;SDS011;11067;48.788;9.208;2022-10-16T16:00:11;4.30;;;2.33;;
21810;SDS011;11067;48.788;9.208;2022-10-16T16:02:39;4.07;;;2.60;;
21810;SDS011;11067;48.788;9.208;2022-10-16T16:05:08;3.75;;;2.67;;
21810;SDS011;11067;48.788;9.208;2022-10-16T16:07:36;5.97;;;3.35;;
21810;SDS011;11067;48.788;9.208;2022-10-16T16:10:03;5.93;;;4.22;;
21810;SDS011;11067;48.788;9.208;2022-10-16T16:12:30;7.95;;;3.95;;
21810;SDS011;11067;48.788;9.208;2022-10-16T16:14:56;9.53;;;4.10;;
21810;SDS011;11067;48.788;9.208;2022-10-16T16:17:22;5.78;;;3.67;;
21810;SDS011;11067;48.788;9.208;2022-10-16T16:19:48;6.17;;;4.13;;
21810;SDS011;11067;48.788;9.208;2022-10-16T16:22:14;10.13;;;3.80;;
21810;SDS011;11067;48.788;9.208;2022-10-16T16:24:39;8.67;;;4.00;;
21810;SDS011;11067;48.788;9.208;2022-10-16T16:27:05;11.48;;;4.18;;
21810;SDS011;11067;48.788;9.208;2022-10-16T16:29:30;5.60;;;3.97;;
21810;SDS011;11067;48.788;9.208;2022-10-16T16:31:56;6.13;;;4.65;;
21810;SDS011;11067;48.788;9.208;2022-10-16T16:34:24;7.45;;;5.07;;
21810;SDS011;11067;48.788;9.208;2022-10-16T16:36:50;8.10;;;4.82;;
21810;SDS011;11067;48.788;9.208;2022-10-16T16:39:16;8.93;;;4.43;;
21810;SDS011;11067;48.788;9.208;2022-10-16T16:41:42;10.40;;;5.18;;